createdAt,value
2023-03-22T00:01:28.621Z,92.23
2023-03-22T00:03:56.402Z,92.94
2023-03-22T00:06:24.499Z,91.53
2023-03-22T00:08:53.257Z,92.35
2023-03-22T00:11:24.175Z,91.58
2023-03-22T00:13:52.750Z,93.11
2023-03-22T00:16:20.717Z,90.25
2023-03-22T00:18:48.361Z,93.44
2023-03-22T00:21:16.976Z,93.06
2023-03-22T00:23:44.828Z,92.67
2023-03-22T00:26:14.088Z,90.95
2023-03-22T00:28:43.232Z,91.22
2023-03-22T00:31:11.845Z,91.00
2023-03-22T00:33:39.470Z,93.43
2023-03-22T00:36:08.863Z,92.49
2023-03-22T00:38:42.857Z,92.94
2023-03-22T00:41:13.206Z,91.54
2023-03-22T00:43:40.640Z,91.89
2023-03-22T00:46:10.774Z,91.92
2023-03-22T00:48:38.611Z,92.08
2023-03-22T00:51:06.892Z,93.10
2023-03-22T00:53:36.382Z,95.32
2023-03-22T00:56:04.544Z,92.39
2023-03-22T00:58:32.488Z,92.19
2023-03-22T01:01:00.105Z,90.78
2023-03-22T01:03:29.153Z,91.54
2023-03-22T01:05:56.785Z,92.22
2023-03-22T01:08:24.750Z,92.29
2023-03-22T01:10:52.528Z,91.68
2023-03-22T01:13:20.108Z,92.54
2023-03-22T01:15:51.230Z,91.56
2023-03-22T01:18:18.986Z,92.47
2023-03-22T01:20:47.807Z,90.99
2023-03-22T01:23:15.263Z,91.53
2023-03-22T01:25:42.824Z,91.44
2023-03-22T01:28:10.389Z,91.66
2023-03-22T01:30:40.012Z,91.81
2023-03-22T01:33:08.607Z,90.81
2023-03-22T01:35:36.663Z,91.19
2023-03-22T01:38:05.878Z,91.18
2023-03-22T01:40:34.067Z,90.21
2023-03-22T01:43:01.515Z,94.13
2023-03-22T01:45:36.951Z,91.52
2023-03-22T01:48:09.318Z,91.34
2023-03-22T01:50:38.967Z,92.12
2023-03-22T01:53:09.615Z,90.97
2023-03-22T01:55:38.491Z,92.01
2023-03-22T01:58:06.475Z,92.20
2023-03-22T02:00:34.699Z,90.88
2023-03-22T02:03:02.251Z,90.46
2023-03-22T02:05:30.949Z,90.67
2023-03-22T02:07:58.510Z,90.90
2023-03-22T02:10:28.611Z,90.53
2023-03-22T02:13:12.014Z,90.59
2023-03-22T02:15:46.923Z,90.98
2023-03-22T02:18:28.477Z,93.46
2023-03-22T02:21:22.240Z,91.89
2023-03-22T02:24:28.012Z,91.33
2023-03-22T02:27:34.998Z,91.10
2023-03-22T02:30:25.063Z,95.40
2023-03-22T02:33:13.736Z,92.74
2023-03-22T02:35:51.609Z,91.53
2023-03-22T02:39:00.113Z,90.46
2023-03-22T02:41:39.400Z,91.43
2023-03-22T02:44:13.090Z,90.17
2023-03-22T02:46:46.552Z,90.97
2023-03-22T02:49:21.298Z,90.33
2023-03-22T02:51:53.628Z,89.80
2023-03-22T02:54:28.704Z,90.09
2023-03-22T02:57:02.900Z,90.82
2023-03-22T02:59:34.348Z,90.67
2023-03-22T03:02:06.107Z,92.87
2023-03-22T03:04:39.410Z,91.61
2023-03-22T03:07:10.540Z,91.81
2023-03-22T03:09:42.112Z,93.52
2023-03-22T03:12:14.302Z,96.63
2023-03-22T03:14:42.128Z,92.12
2023-03-22T03:17:21.315Z,92.25
2023-03-22T03:19:59.161Z,91.76
2023-03-22T03:22:36.682Z,92.83
2023-03-22T03:25:15.086Z,90.66
2023-03-22T03:27:49.814Z,91.62
2023-03-22T03:30:27.115Z,89.41
2023-03-22T03:32:59.192Z,90.16
2023-03-22T03:35:29.201Z,89.47
2023-03-22T03:38:01.501Z,89.93
2023-03-22T03:40:33.441Z,88.75
2023-03-22T03:43:04.328Z,87.88
2023-03-22T03:45:31.922Z,90.60
2023-03-22T03:48:02.083Z,90.54
2023-03-22T03:50:30.083Z,91.56
2023-03-22T03:52:57.978Z,89.33
2023-03-22T03:55:27.217Z,89.04
2023-03-22T03:57:56.105Z,91.49
2023-03-22T04:00:24.224Z,92.21
2023-03-22T04:02:51.680Z,90.58
2023-03-22T04:05:19.315Z,88.48
2023-03-22T04:07:46.807Z,91.16
2023-03-22T04:10:14.288Z,91.84
2023-03-22T04:12:41.736Z,89.47
2023-03-22T04:15:12.134Z,89.13
2023-03-22T04:17:39.784Z,86.99
2023-03-22T04:20:10.785Z,88.41
2023-03-22T04:22:39.304Z,87.93
2023-03-22T04:25:11.676Z,88.37
2023-03-22T04:27:40.659Z,87.18
2023-03-22T04:30:12.402Z,91.98
2023-03-22T04:32:40.448Z,91.75
2023-03-22T04:35:08.315Z,88.67
2023-03-22T04:37:36.499Z,88.30
2023-03-22T04:40:07.270Z,88.10
2023-03-22T04:42:35.499Z,86.28
2023-03-22T04:45:03.850Z,87.74
2023-03-22T04:47:32.655Z,87.35
2023-03-22T04:50:00.134Z,85.46
2023-03-22T04:52:27.569Z,87.88
2023-03-22T04:54:54.975Z,87.54
2023-03-22T04:57:22.649Z,87.08
2023-03-22T04:59:50.189Z,87.59
2023-03-22T05:02:17.733Z,87.71
2023-03-22T05:04:46.738Z,88.23
2023-03-22T05:07:14.268Z,86.59
2023-03-22T05:09:41.830Z,85.79
2023-03-22T05:12:09.292Z,86.20
2023-03-22T05:14:36.865Z,85.80
2023-03-22T05:17:04.343Z,86.09
2023-03-22T05:19:33.166Z,86.59
2023-03-22T05:22:02.024Z,86.10
2023-03-22T05:24:30.048Z,86.12
2023-03-22T05:27:01.017Z,84.72
2023-03-22T05:29:29.202Z,90.06
2023-03-22T05:31:56.672Z,88.72
2023-03-22T05:34:24.148Z,88.33
2023-03-22T05:36:51.749Z,85.88
2023-03-22T05:39:20.864Z,86.11
2023-03-22T05:41:48.396Z,89.57
2023-03-22T05:44:15.904Z,87.27
2023-03-22T05:46:43.360Z,87.00
2023-03-22T05:49:12.198Z,86.78
2023-03-22T05:51:42.096Z,87.79
2023-03-22T05:54:09.780Z,86.01
2023-03-22T05:56:40.676Z,85.20
2023-03-22T05:59:08.255Z,83.90
2023-03-22T06:01:35.803Z,84.67
2023-03-22T06:04:03.294Z,84.53
2023-03-22T06:06:30.783Z,86.24
2023-03-22T06:09:14.163Z,84.67
2023-03-22T06:11:44.752Z,84.18
2023-03-22T06:14:12.207Z,84.48
2023-03-22T06:16:39.706Z,83.16
2023-03-22T06:19:07.170Z,83.61
2023-03-22T06:21:34.660Z,83.49
2023-03-22T06:24:02.104Z,85.32
2023-03-22T06:26:29.580Z,85.10
2023-03-22T06:28:58.352Z,84.66
2023-03-22T06:31:26.054Z,84.29
2023-03-22T06:33:55.806Z,85.90
2023-03-22T06:36:23.482Z,83.70
2023-03-22T06:38:51.008Z,84.37
2023-03-22T06:41:18.464Z,83.46
2023-03-22T06:43:46.162Z,84.79
2023-03-22T06:46:15.331Z,83.03
2023-03-22T06:48:42.964Z,84.62
2023-03-22T06:51:10.464Z,85.22
2023-03-22T06:53:38.275Z,84.49
2023-03-22T06:56:06.665Z,82.71
2023-03-22T06:58:34.151Z,83.30
2023-03-22T07:01:01.621Z,83.38
2023-03-22T07:03:30.448Z,80.93
2023-03-22T07:06:02.509Z,82.41
2023-03-22T07:08:30.069Z,81.30
2023-03-22T07:10:57.607Z,82.45
2023-03-22T07:13:25.072Z,82.11
2023-03-22T07:15:56.606Z,81.79
2023-03-22T07:18:24.456Z,82.26
2023-03-22T07:20:53.291Z,81.76
2023-03-22T07:23:20.834Z,81.78
2023-03-22T07:25:49.436Z,80.80
2023-03-22T07:28:17.212Z,83.86
2023-03-22T07:30:44.748Z,81.16
2023-03-22T07:33:12.297Z,80.69
2023-03-22T07:35:39.783Z,81.47
2023-03-22T07:38:08.541Z,79.66
2023-03-22T07:40:37.433Z,80.17
2023-03-22T07:43:05.517Z,80.59
2023-03-22T07:45:33.144Z,81.38
2023-03-22T07:48:00.998Z,80.43
2023-03-22T07:50:28.598Z,78.20
2023-03-22T07:52:56.056Z,78.53
2023-03-22T07:55:25.097Z,77.14
2023-03-22T07:57:53.716Z,78.02
2023-03-22T08:00:21.831Z,76.92
2023-03-22T08:02:49.718Z,76.63
2023-03-22T08:05:17.311Z,78.04
2023-03-22T08:07:44.953Z,76.71
2023-03-22T08:10:12.816Z,74.69
2023-03-22T08:12:41.588Z,75.63
2023-03-22T08:15:11.113Z,75.73
2023-03-22T08:17:38.630Z,75.96
2023-03-22T08:20:08.905Z,73.74
2023-03-22T08:22:36.546Z,75.01
2023-03-22T08:25:04.694Z,74.07
2023-03-22T08:27:32.442Z,74.01
2023-03-22T08:30:02.508Z,75.32
2023-03-22T08:32:30.027Z,76.06
2023-03-22T08:34:57.475Z,74.62
2023-03-22T08:37:25.243Z,74.84
2023-03-22T08:39:52.874Z,76.44
2023-03-22T08:42:20.321Z,73.49
2023-03-22T08:44:47.919Z,73.80
2023-03-22T08:47:16.846Z,73.83
2023-03-22T08:49:44.319Z,73.92
2023-03-22T08:52:11.915Z,73.08
2023-03-22T08:54:39.575Z,72.96
2023-03-22T08:57:09.439Z,72.56
2023-03-22T08:59:37.063Z,72.90
2023-03-22T09:02:04.773Z,72.48
2023-03-22T09:04:33.690Z,72.54
2023-03-22T09:07:01.355Z,74.57
2023-03-22T09:09:28.815Z,72.81
2023-03-22T09:11:56.280Z,73.21
2023-03-22T09:14:23.781Z,73.12
2023-03-22T09:16:51.868Z,71.09
2023-03-22T09:19:19.430Z,70.57
2023-03-22T09:21:48.455Z,71.06
2023-03-22T09:24:15.955Z,70.21
2023-03-22T09:26:43.409Z,69.90
2023-03-22T09:29:11.018Z,71.29
2023-03-22T09:31:38.526Z,70.20
2023-03-22T09:34:06.829Z,70.45
2023-03-22T09:36:34.395Z,70.07
2023-03-22T09:39:06.620Z,69.13
2023-03-22T09:41:39.175Z,68.36
2023-03-22T09:44:10.351Z,69.24
2023-03-22T09:46:42.610Z,69.00
2023-03-22T09:49:15.537Z,67.67
2023-03-22T09:51:45.542Z,68.25
2023-03-22T09:54:18.575Z,68.75
2023-03-22T09:56:50.793Z,67.29
2023-03-22T09:59:27.229Z,67.42
2023-03-22T10:01:59.964Z,71.14
2023-03-22T10:04:42.032Z,67.93
2023-03-22T10:07:22.492Z,66.38
2023-03-22T10:10:02.046Z,67.26
2023-03-22T10:12:32.210Z,67.98
2023-03-22T10:15:06.918Z,65.56
2023-03-22T10:17:37.135Z,65.52
2023-03-22T10:20:09.536Z,65.86
2023-03-22T10:22:41.557Z,65.22
2023-03-22T10:25:11.158Z,64.88
2023-03-22T10:27:38.689Z,65.68
2023-03-22T10:30:11.279Z,65.06
2023-03-22T10:32:57.156Z,63.35
2023-03-22T10:35:25.874Z,64.11
2023-03-22T10:37:55.575Z,65.01
2023-03-22T10:40:28.050Z,64.26
2023-03-22T10:42:57.882Z,65.49
2023-03-22T10:45:27.201Z,66.60
2023-03-22T10:48:00.945Z,66.25
2023-03-22T10:50:33.298Z,64.48
2023-03-22T10:53:05.198Z,63.85
2023-03-22T10:55:34.050Z,64.43
2023-03-22T10:58:15.575Z,64.68
2023-03-22T11:00:47.339Z,63.21
2023-03-22T11:03:27.862Z,63.66
2023-03-22T11:06:06.314Z,63.64
2023-03-22T11:08:40.568Z,63.19
2023-03-22T11:11:17.970Z,63.39
2023-03-22T11:13:52.093Z,62.57
2023-03-22T11:16:20.243Z,63.08
2023-03-22T11:18:48.137Z,63.13
2023-03-22T11:21:18.320Z,63.91
2023-03-22T11:23:54.006Z,63.26
2023-03-22T11:26:30.928Z,62.28
2023-03-22T11:29:05.618Z,62.58
2023-03-22T11:31:58.277Z,63.62
2023-03-22T11:34:28.534Z,62.28
2023-03-22T11:36:57.598Z,61.56
2023-03-22T11:39:28.279Z,61.66
2023-03-22T11:42:01.571Z,60.29
2023-03-22T11:44:33.015Z,61.77
2023-03-22T11:47:03.072Z,61.76
2023-03-22T11:49:40.614Z,61.45
2023-03-22T11:52:11.412Z,60.43
2023-03-22T11:54:42.421Z,59.30
2023-03-22T11:57:16.950Z,59.53
2023-03-22T11:59:49.740Z,59.94
2023-03-22T12:02:23.815Z,58.68
2023-03-22T12:04:57.350Z,60.08
2023-03-22T12:07:27.726Z,58.49
2023-03-22T12:10:03.309Z,59.37
2023-03-22T12:12:37.741Z,59.28
2023-03-22T12:15:09.320Z,59.24
2023-03-22T12:17:42.736Z,58.34
2023-03-22T12:20:20.702Z,59.33
2023-03-22T12:22:52.693Z,58.45
2023-03-22T12:25:23.712Z,57.80
2023-03-22T12:27:55.825Z,58.94
2023-03-22T12:30:26.295Z,59.77
2023-03-22T12:32:59.810Z,59.00
2023-03-22T12:35:31.361Z,59.77
2023-03-22T12:38:02.502Z,58.91
2023-03-22T12:40:34.370Z,58.16
2023-03-22T12:43:11.493Z,59.46
2023-03-22T12:45:43.494Z,59.35
2023-03-22T12:48:19.366Z,57.91
2023-03-22T12:50:51.461Z,59.32
2023-03-22T12:53:21.267Z,58.57
2023-03-22T12:55:50.327Z,58.54
2023-03-22T12:58:22.391Z,59.51
2023-03-22T13:00:55.299Z,57.85
2023-03-22T13:03:28.812Z,58.29
2023-03-22T13:06:02.670Z,59.10
2023-03-22T13:09:03.948Z,59.11
2023-03-22T13:11:31.499Z,58.57
2023-03-22T13:14:00.391Z,59.40
2023-03-22T13:16:49.709Z,59.67
2023-03-22T13:19:33.902Z,59.22
2023-03-22T13:22:29.300Z,59.65
2023-03-22T13:25:28.951Z,60.25
2023-03-22T13:27:58.824Z,60.52
2023-03-22T13:30:33.010Z,57.85
2023-03-22T13:33:04.439Z,57.79
2023-03-22T13:35:44.407Z,57.10
2023-03-22T13:38:21.046Z,56.96
2023-03-22T13:40:54.741Z,56.63
2023-03-22T13:43:34.227Z,56.34
2023-03-22T13:46:43.171Z,55.65
2023-03-22T13:49:24.482Z,56.47
2023-03-22T13:51:52.508Z,57.82
2023-03-22T13:54:24.767Z,56.87
2023-03-22T13:56:56.911Z,57.39
2023-03-22T13:59:30.104Z,55.90
2023-03-22T14:02:05.077Z,57.01
2023-03-22T14:04:39.384Z,55.93
2023-03-22T14:07:20.503Z,55.83
2023-03-22T14:09:51.584Z,56.06
2023-03-22T14:12:23.578Z,56.34
2023-03-22T14:14:55.912Z,55.28
2023-03-22T14:17:34.158Z,55.81
2023-03-22T14:20:04.912Z,55.54
